createdAt,value
2018-04-12T00:01:00.000Z,97964
2018-04-12T00:06:00.000Z,97962
2018-04-12T00:11:00.000Z,97965
2018-04-12T00:16:00.000Z,97951
2018-04-12T00:21:00.000Z,97947
2018-04-12T00:26:00.000Z,97934
2018-04-12T00:31:00.000Z,97939
2018-04-12T00:36:00.000Z,97935
2018-04-12T00:41:00.000Z,97935
2018-04-12T00:46:00.000Z,97943
2018-04-12T00:51:00.000Z,97939
2018-04-12T00:56:00.000Z,97947
2018-04-12T01:01:00.000Z,97933
2018-04-12T01:06:00.000Z,97936
2018-04-12T01:11:00.000Z,97933
2018-04-12T01:17:00.000Z,97936
2018-04-12T01:22:00.000Z,97929
2018-04-12T01:27:00.000Z,97945
2018-04-12T01:32:00.000Z,97947
2018-04-12T01:37:00.000Z,97947
2018-04-12T01:42:00.000Z,97948
2018-04-12T01:47:00.000Z,97948
2018-04-12T01:52:00.000Z,97942
2018-04-12T01:57:00.000Z,97943
2018-04-12T02:02:00.000Z,97933
2018-04-12T02:07:00.000Z,97936
2018-04-12T02:12:00.000Z,97936
2018-04-12T02:17:00.000Z,97926
2018-04-12T02:22:00.000Z,97916
2018-04-12T02:27:00.000Z,97908
2018-04-12T02:32:00.000Z,97915
2018-04-12T02:37:00.000Z,97917
2018-04-12T02:42:00.000Z,97913
2018-04-12T02:47:00.000Z,97907
2018-04-12T02:52:00.000Z,97916
2018-04-12T02:57:00.000Z,97908
2018-04-12T03:02:00.000Z,97915
2018-04-12T03:07:00.000Z,97918
2018-04-12T03:12:00.000Z,97914
2018-04-12T03:17:00.000Z,97931
2018-04-12T03:22:00.000Z,97919
2018-04-12T03:27:00.000Z,97914
2018-04-12T03:32:00.000Z,97906
2018-04-12T03:37:00.000Z,97903
2018-04-12T03:42:00.000Z,97898
2018-04-12T03:47:00.000Z,97896
2018-04-12T03:52:00.000Z,97899
2018-04-12T03:57:00.000Z,97889
2018-04-12T04:02:00.000Z,97893
2018-04-12T04:07:00.000Z,97900
2018-04-12T04:12:00.000Z,97893
2018-04-12T04:17:00.000Z,97886
2018-04-12T04:22:00.000Z,97887
2018-04-12T04:27:00.000Z,97889
2018-04-12T04:32:00.000Z,97888
2018-04-12T04:37:00.000Z,97889
2018-04-12T04:42:00.000Z,97900
2018-04-12T04:47:00.000Z,97900
2018-04-12T04:52:00.000Z,97904
2018-04-12T04:57:00.000Z,97893
2018-04-12T05:02:00.000Z,97908
2018-04-12T05:07:00.000Z,97908
2018-04-12T05:12:00.000Z,97915
2018-04-12T05:17:00.000Z,97927
2018-04-12T05:22:00.000Z,97935
2018-04-12T05:27:00.000Z,97939
2018-04-12T05:32:00.000Z,97938
2018-04-12T05:37:00.000Z,97947
2018-04-12T05:42:00.000Z,97942
2018-04-12T05:47:00.000Z,97942
2018-04-12T05:52:00.000Z,97933
2018-04-12T05:57:00.000Z,97936
2018-04-12T06:02:00.000Z,97926
2018-04-12T06:07:00.000Z,97926
2018-04-12T06:12:00.000Z,97913
2018-04-12T06:17:00.000Z,97927
2018-04-12T06:22:00.000Z,97924
2018-04-12T06:27:00.000Z,97932
2018-04-12T06:32:00.000Z,97941
2018-04-12T06:49:00.000Z,97957
2018-04-12T06:54:00.000Z,97968
2018-04-12T06:59:00.000Z,97951
2018-04-12T07:04:00.000Z,97936
2018-04-12T07:09:00.000Z,97928
2018-04-12T07:14:00.000Z,97929
2018-04-12T07:19:00.000Z,97921
2018-04-12T07:24:00.000Z,97913
2018-04-12T07:29:00.000Z,97928
2018-04-12T07:34:00.000Z,97928
2018-04-12T07:39:00.000Z,97920
2018-04-12T07:44:00.000Z,97912
2018-04-12T07:49:00.000Z,97899
2018-04-12T07:54:00.000Z,97901
2018-04-12T07:59:00.000Z,97889
2018-04-12T08:04:00.000Z,97887
2018-04-12T08:09:00.000Z,97900
2018-04-12T08:14:00.000Z,97891
2018-04-12T08:19:00.000Z,97902
2018-04-12T08:24:00.000Z,97910
2018-04-12T08:29:00.000Z,97912
2018-04-12T08:34:00.000Z,97906
2018-04-12T08:39:00.000Z,97908
2018-04-12T08:44:00.000Z,97901
2018-04-12T08:49:00.000Z,97918
2018-04-12T08:54:00.000Z,97918
2018-04-12T08:59:00.000Z,97904
2018-04-12T09:04:00.000Z,97907
2018-04-12T09:09:00.000Z,97904
2018-04-12T09:14:00.000Z,97912
2018-04-12T09:19:00.000Z,97927
2018-04-12T09:24:00.000Z,97927
2018-04-12T09:29:00.000Z,97904
2018-04-12T09:34:00.000Z,97905
2018-04-12T09:39:00.000Z,97902
2018-04-12T09:44:00.000Z,97895
2018-04-12T09:49:00.000Z,97902
2018-04-12T09:54:00.000Z,97897
2018-04-12T09:59:00.000Z,97899
2018-04-12T10:04:00.000Z,97887
2018-04-12T10:09:00.000Z,97889
2018-04-12T10:14:00.000Z,97891
2018-04-12T10:19:00.000Z,97890
2018-04-12T10:24:00.000Z,97895
2018-04-12T10:29:00.000Z,97892
2018-04-12T10:34:00.000Z,97880
2018-04-12T10:39:00.000Z,97888
2018-04-12T10:44:00.000Z,97878
2018-04-12T10:49:00.000Z,97883
2018-04-12T10:54:00.000Z,97888
2018-04-12T10:59:00.000Z,97882
2018-04-12T11:04:00.000Z,97879
2018-04-12T11:10:00.000Z,97875
2018-04-12T11:15:00.000Z,97871
2018-04-12T11:20:00.000Z,97858
2018-04-12T11:25:00.000Z,97850
2018-04-12T11:30:00.000Z,97849
2018-04-12T11:35:00.000Z,97841
2018-04-12T11:40:00.000Z,97832
2018-04-12T11:45:00.000Z,97844
2018-04-12T11:50:00.000Z,97845
2018-04-12T11:55:00.000Z,97836
2018-04-12T12:00:00.000Z,97836
2018-04-12T12:05:00.000Z,97830
2018-04-12T12:10:00.000Z,97824
2018-04-12T12:15:00.000Z,97819
2018-04-12T12:20:00.000Z,97824
2018-04-12T12:25:00.000Z,97815
2018-04-12T12:30:00.000Z,97797
2018-04-12T12:35:00.000Z,97796
2018-04-12T12:40:00.000Z,97815
2018-04-12T12:45:00.000Z,97802
2018-04-12T12:50:00.000Z,97815
2018-04-12T12:55:00.000Z,97812
2018-04-12T13:00:00.000Z,97818
2018-04-12T13:05:00.000Z,97807
2018-04-12T13:10:00.000Z,97812
2018-04-12T13:15:00.000Z,97807
2018-04-12T13:20:00.000Z,97810
2018-04-12T13:25:00.000Z,97805
2018-04-12T13:30:00.000Z,97802
2018-04-12T13:35:00.000Z,97802
2018-04-12T13:40:00.000Z,97804
2018-04-12T13:45:00.000Z,97803
2018-04-12T13:50:00.000Z,97801
2018-04-12T13:55:00.000Z,97799
2018-04-12T14:00:00.000Z,97790
2018-04-12T14:05:00.000Z,97787
2018-04-12T14:10:00.000Z,97783
2018-04-12T14:15:00.000Z,97781
2018-04-12T14:20:00.000Z,97774
2018-04-12T14:25:00.000Z,97787
2018-04-12T14:30:00.000Z,97781
2018-04-12T14:35:00.000Z,97788
2018-04-12T14:40:00.000Z,97781
2018-04-12T14:45:00.000Z,97784
2018-04-12T14:50:00.000Z,97782
2018-04-12T14:55:00.000Z,97780
2018-04-12T15:00:00.000Z,97779
2018-04-12T15:05:00.000Z,97779
2018-04-12T15:10:00.000Z,97779
2018-04-12T15:15:00.000Z,97776
2018-04-12T15:20:00.000Z,97787
2018-04-12T15:25:00.000Z,97773
2018-04-12T15:30:00.000Z,97781
2018-04-12T15:35:00.000Z,97790
2018-04-12T15:40:00.000Z,97788
2018-04-12T15:45:00.000Z,97797
2018-04-12T15:50:00.000Z,97797
2018-04-12T15:55:00.000Z,97803
2018-04-12T16:00:00.000Z,97797
2018-04-12T16:05:00.000Z,97817
2018-04-12T16:10:00.000Z,97814
2018-04-12T16:15:00.000Z,97811
2018-04-12T16:20:00.000Z,97804
2018-04-12T16:25:00.000Z,97799
2018-04-12T16:30:00.000Z,97807
2018-04-12T16:35:00.000Z,97813
2018-04-12T16:40:00.000Z,97816
2018-04-12T16:45:00.000Z,97807
2018-04-12T16:50:00.000Z,97820
2018-04-12T16:55:00.000Z,97815
2018-04-12T17:00:00.000Z,97817
2018-04-12T17:05:00.000Z,97819
2018-04-12T17:10:00.000Z,97813
2018-04-12T17:16:00.000Z,97830
2018-04-12T17:21:00.000Z,97833
2018-04-12T17:26:00.000Z,97840
2018-04-12T17:31:00.000Z,97847
2018-04-12T17:36:00.000Z,97840
2018-04-12T17:41:00.000Z,97844
2018-04-12T17:46:00.000Z,97852
2018-04-12T17:51:00.000Z,97862
2018-04-12T17:56:00.000Z,97848
2018-04-12T18:01:00.000Z,97851
2018-04-12T18:06:00.000Z,97859
2018-04-12T18:11:00.000Z,97849
2018-04-12T18:16:00.000Z,97848
2018-04-12T18:21:00.000Z,97840
2018-04-12T18:26:00.000Z,97847
2018-04-12T18:31:00.000Z,97851
2018-04-12T18:36:00.000Z,97857
2018-04-12T18:41:00.000Z,97869
2018-04-12T18:46:00.000Z,97863
2018-04-12T18:51:00.000Z,97851
2018-04-12T18:56:00.000Z,97865
2018-04-12T19:01:00.000Z,97867
2018-04-12T19:06:00.000Z,97871
2018-04-12T19:11:00.000Z,97871
2018-04-12T19:16:00.000Z,97880
2018-04-12T19:21:00.000Z,97865
2018-04-12T19:26:00.000Z,97867
2018-04-12T19:31:00.000Z,97845
2018-04-12T19:36:00.000Z,97831
2018-04-12T19:41:00.000Z,97832
2018-04-12T19:46:00.000Z,97819
2018-04-12T19:51:00.000Z,97825
2018-04-12T19:56:00.000Z,97815
2018-04-12T20:01:00.000Z,97838
2018-04-12T20:06:00.000Z,97836
2018-04-12T20:11:00.000Z,97834
2018-04-12T20:16:00.000Z,97850
2018-04-12T20:21:00.000Z,97862
2018-04-12T20:26:00.000Z,97864
2018-04-12T20:31:00.000Z,97891
2018-04-12T20:36:00.000Z,97879
2018-04-12T20:41:00.000Z,97869
2018-04-12T20:46:00.000Z,97876
2018-04-12T20:51:00.000Z,97855
2018-04-12T20:56:00.000Z,97848
2018-04-12T21:01:00.000Z,97825
2018-04-12T21:06:00.000Z,97815
2018-04-12T21:11:00.000Z,97828
2018-04-12T21:16:00.000Z,97839
2018-04-12T21:21:00.000Z,97841
2018-04-12T21:26:00.000Z,97838
2018-04-12T21:31:00.000Z,97851
2018-04-12T21:36:00.000Z,97854
2018-04-12T21:41:00.000Z,97855
2018-04-12T21:46:00.000Z,97842
2018-04-12T21:51:00.000Z,97847
2018-04-12T21:56:00.000Z,97832
2018-04-12T22:01:00.000Z,97814
2018-04-12T22:06:00.000Z,97816
2018-04-12T22:11:00.000Z,97823
2018-04-12T22:16:00.000Z,97818
2018-04-12T22:21:00.000Z,97809
2018-04-12T22:26:00.000Z,97797
2018-04-12T22:31:00.000Z,97806
2018-04-12T22:36:00.000Z,97797
2018-04-12T22:41:00.000Z,97805
2018-04-12T22:46:00.000Z,97810
2018-04-12T22:51:00.000Z,97809
2018-04-12T22:56:00.000Z,97827
2018-04-12T23:01:00.000Z,97821
2018-04-12T23:06:00.000Z,97832
2018-04-12T23:11:00.000Z,97836
2018-04-12T23:16:00.000Z,97831
2018-04-12T23:22:00.000Z,97824
2018-04-12T23:27:00.000Z,97830
2018-04-12T23:32:00.000Z,97823
2018-04-12T23:37:00.000Z,97815
2018-04-12T23:42:00.000Z,97816
2018-04-12T23:47:00.000Z,97822
2018-04-12T23:52:00.000Z,97827
2018-04-12T23:57:00.000Z,97827
